Time;durP1;ratioP1;P1;durP2;ratioP2;P2;SDS_P1;SDS_P2;PMS_P1;PMS_P2;Temp;Humidity;BMP_temperature;BMP_pressure;BME280_temperature;BME280_humidity;BME280_pressure;Samples;Min_cycle;Max_cycle;Signal;HPM_P1;HPM_P2
2021/06/15 00:00:08;;;;;;;7.23;5.07;;;;;;;19.26;61.58;101060.28;5078711;28;20203;-79
2021/06/15 00:02:34;;;;;;;10.37;6.33;;;;;;;19.25;61.77;101063.97;5076454;28;20211;-79
2021/06/15 00:05:01;;;;;;;8.43;5.63;;;;;;;19.24;62.02;101064.97;5078186;28;20231;-77
2021/06/15 00:07:29;;;;;;;8.73;5.77;;;;;;;19.23;62.04;101065.09;5086965;28;20235;-78
2021/06/15 00:09:55;;;;;;;6.90;5.90;;;;;;;19.21;62.13;101062.56;5074278;28;20203;-77
2021/06/15 00:12:22;;;;;;;7.87;5.87;;;;;;;19.19;62.22;101064.53;5080909;28;20213;-78
2021/06/15 00:14:48;;;;;;;8.23;6.13;;;;;;;19.17;62.54;101069.22;5077771;28;20196;-78
2021/06/15 00:17:15;;;;;;;7.30;6.20;;;;;;;19.15;62.70;101070.38;5075734;28;20219;-77
2021/06/15 00:19:41;;;;;;;7.63;6.50;;;;;;;19.11;62.68;101071.66;5077229;28;20208;-77
2021/06/15 00:22:08;;;;;;;11.53;6.93;;;;;;;19.05;63.04;101067.66;5083031;28;20708;-77
2021/06/15 00:24:36;;;;;;;8.40;6.53;;;;;;;19.02;63.49;101073.34;5071927;28;20222;-77
2021/06/15 00:27:03;;;;;;;7.53;6.23;;;;;;;18.97;63.53;101073.78;5072083;28;20925;-78
2021/06/15 00:29:29;;;;;;;11.50;6.80;;;;;;;18.94;63.71;101079.47;5072277;28;20207;-77
2021/06/15 00:31:56;;;;;;;11.20;7.63;;;;;;;18.91;63.80;101073.50;5079240;28;20207;-79
2021/06/15 00:34:22;;;;;;;10.20;7.40;;;;;;;18.87;63.96;101070.22;5079738;28;20203;-77
2021/06/15 00:36:49;;;;;;;9.93;6.90;;;;;;;18.85;64.32;101068.66;5074058;28;20243;-79
2021/06/15 00:39:15;;;;;;;9.93;7.63;;;;;;;18.83;64.55;101068.78;5077619;28;20221;-79
2021/06/15 00:41:43;;;;;;;9.47;7.60;;;;;;;18.82;64.50;101077.00;5074352;28;20213;-77
2021/06/15 00:44:11;;;;;;;10.70;8.47;;;;;;;18.80;64.77;101071.78;5076809;28;20221;-80
2021/06/15 00:46:38;;;;;;;8.20;7.40;;;;;;;18.77;64.83;101080.16;5073351;28;20230;-79
2021/06/15 00:49:05;;;;;;;9.33;7.57;;;;;;;18.77;64.82;101076.59;5073653;28;20294;-78
2021/06/15 00:51:32;;;;;;;14.23;8.33;;;;;;;18.75;65.03;101076.75;5075496;28;20554;-77
2021/06/15 00:53:59;;;;;;;9.57;7.67;;;;;;;18.72;64.96;101074.31;5073714;28;20199;-77
2021/06/15 00:56:25;;;;;;;13.33;8.50;;;;;;;18.68;65.15;101076.44;5075841;28;20211;-77
2021/06/15 00:58:53;;;;;;;11.67;8.17;;;;;;;18.68;65.16;101079.13;5081679;28;20208;-77
2021/06/15 01:01:20;;;;;;;9.93;8.70;;;;;;;18.64;65.18;101075.00;5079127;28;20217;-77
2021/06/15 01:03:47;;;;;;;9.50;8.43;;;;;;;18.63;65.41;101081.38;5082742;28;20198;-77
2021/06/15 01:06:17;;;;;;;9.93;8.60;;;;;;;18.60;65.35;101076.28;5078848;28;20210;-77
2021/06/15 01:08:49;;;;;;;12.33;8.47;;;;;;;18.57;65.53;101081.91;5083664;28;20205;-78
2021/06/15 01:11:24;;;;;;;10.70;9.60;;;;;;;18.54;65.74;101084.88;5073131;28;20209;-77
2021/06/15 01:14:02;;;;;;;12.47;8.63;;;;;;;18.51;65.62;101078.91;5084486;28;20201;-77
2021/06/15 01:16:35;;;;;;;12.93;9.40;;;;;;;18.49;65.68;101083.59;5067294;28;20206;-77
2021/06/15 01:19:12;;;;;;;11.20;8.87;;;;;;;18.45;65.98;101080.31;5084423;28;20201;-77
2021/06/15 01:21:56;;;;;;;11.03;9.60;;;;;;;18.43;65.99;101082.31;5081421;28;20239;-78
2021/06/15 01:24:32;;;;;;;11.47;9.97;;;;;;;18.41;66.14;101080.75;5077968;28;20683;-79
2021/06/15 01:27:25;;;;;;;11.97;9.93;;;;;;;18.38;66.05;101076.47;5081156;28;20220;-77
2021/06/15 01:29:56;;;;;;;13.80;9.97;;;;;;;18.36;66.38;101076.59;5081556;28;20216;-76
2021/06/15 01:32:28;;;;;;;11.37;8.97;;;;;;;18.35;66.31;101074.91;5078221;28;20817;-78
2021/06/15 01:34:55;;;;;;;11.73;9.60;;;;;;;18.33;66.47;101076.88;5083241;28;20665;-76
2021/06/15 01:37:26;;;;;;;12.93;10.17;;;;;;;18.32;66.43;101085.94;5085102;28;20231;-78
2021/06/15 01:39:56;;;;;;;11.80;9.63;;;;;;;18.32;66.49;101085.09;5082754;28;20201;-77
2021/06/15 01:42:27;;;;;;;11.97;9.10;;;;;;;18.31;66.44;101078.00;5086919;28;20207;-77
2021/06/15 01:45:04;;;;;;;11.90;10.57;;;;;;;18.29;66.36;101077.28;5063768;28;20230;-78
2021/06/15 01:47:31;;;;;;;12.63;10.13;;;;;;;18.27;66.41;101080.09;5067475;28;20232;-77
2021/06/15 01:50:01;;;;;;;12.97;10.37;;;;;;;18.26;66.51;101075.72;5072827;28;20214;-77
2021/06/15 01:52:32;;;;;;;10.83;9.83;;;;;;;18.25;66.42;101081.25;5065605;28;20263;-78
2021/06/15 01:54:59;;;;;;;11.10;9.13;;;;;;;18.21;66.38;101069.88;5071230;28;20233;-77
2021/06/15 01:57:26;;;;;;;9.23;8.37;;;;;;;18.18;66.18;101072.00;5091600;28;20254;-77
2021/06/15 01:59:59;;;;;;;12.47;8.90;;;;;;;18.09;65.72;101067.44;5058347;28;20210;-77
2021/06/15 02:02:27;;;;;;;10.60;8.80;;;;;;;17.99;65.71;101073.59;5060688;28;20209;-77
2021/06/15 02:04:56;;;;;;;10.90;9.77;;;;;;;17.89;66.15;101077.25;5094099;28;20223;-77
2021/06/15 02:07:28;;;;;;;11.87;10.07;;;;;;;17.81;66.23;101079.75;5066828;28;20221;-78
2021/06/15 02:09:57;;;;;;;13.63;10.50;;;;;;;17.74;66.80;101079.41;5066538;28;20198;-77
2021/06/15 02:12:29;;;;;;;11.67;9.63;;;;;;;17.71;67.00;101084.25;5069378;28;20210;-77
2021/06/15 02:14:59;;;;;;;12.30;9.77;;;;;;;17.68;67.46;101086.22;5061097;28;20211;-78
2021/06/15 02:17:27;;;;;;;12.70;11.10;;;;;;;17.68;67.83;101085.34;5064996;28;20228;-77
2021/06/15 02:19:54;;;;;;;12.53;10.67;;;;;;;17.70;68.06;101096.84;5057640;28;20213;-79
2021/06/15 02:22:23;;;;;;;13.60;11.23;;;;;;;17.72;68.26;101092.19;5067843;28;20206;-77
2021/06/15 02:24:54;;;;;;;14.03;11.03;;;;;;;17.74;68.28;101100.13;5056538;28;20224;-77
2021/06/15 02:27:23;;;;;;;12.77;10.87;;;;;;;17.73;68.35;101093.91;5071188;28;20223;-77
2021/06/15 02:29:53;;;;;;;17.27;11.03;;;;;;;17.73;68.34;101103.81;5056161;28;20256;-77
2021/06/15 02:32:25;;;;;;;14.03;10.13;;;;;;;17.70;68.31;101099.56;5060232;28;20209;-78
2021/06/15 02:34:53;;;;;;;14.33;10.53;;;;;;;17.68;68.42;101102.38;5058234;28;20201;-78
2021/06/15 02:37:24;;;;;;;12.50;10.23;;;;;;;17.64;68.44;101100.06;5074491;28;20224;-77
2021/06/15 02:39:52;;;;;;;13.00;11.70;;;;;;;17.62;68.65;101112.78;5057407;28;20266;-77
2021/06/15 02:42:20;;;;;;;13.90;10.87;;;;;;;17.58;68.75;101109.47;5086068;28;20204;-77
2021/06/15 02:44:50;;;;;;;15.50;10.97;;;;;;;17.55;68.86;101109.78;5073023;28;20228;-78
2021/06/15 02:47:18;;;;;;;14.23;10.90;;;;;;;17.50;68.70;101109.31;5062718;28;20220;-78
2021/06/15 02:49:54;;;;;;;12.80;11.20;;;;;;;17.47;68.78;101116.78;5066329;28;20204;-78
2021/06/15 02:52:40;;;;;;;12.80;10.47;;;;;;;17.41;68.71;101120.84;5064159;28;20206;-77
2021/06/15 02:55:11;;;;;;;15.93;10.77;;;;;;;17.38;69.06;101118.41;5067817;28;20283;-76
2021/06/15 02:57:37;;;;;;;13.07;11.47;;;;;;;17.34;69.16;101120.50;5073202;28;20232;-77
2021/06/15 03:00:08;;;;;;;16.40;11.07;;;;;;;17.31;69.25;101123.47;5072454;28;20203;-77
2021/06/15 03:02:35;;;;;;;13.03;10.90;;;;;;;17.28;69.27;101125.56;5063734;28;20718;-78
2021/06/15 03:05:05;;;;;;;15.77;11.10;;;;;;;17.23;69.69;101117.84;5065119;28;20224;-77
2021/06/15 03:07:32;;;;;;;16.67;12.37;;;;;;;17.20;69.90;101123.50;5068583;28;20220;-78
2021/06/15 03:10:01;;;;;;;14.40;12.70;;;;;;;17.18;70.05;101130.88;5073547;28;20210;-77
2021/06/15 03:12:30;;;;;;;14.00;11.67;;;;;;;17.15;70.19;101128.41;5072423;28;20203;-77
2021/06/15 03:15:03;;;;;;;15.83;12.03;;;;;;;17.11;70.36;101132.34;5058365;28;20199;-76
2021/06/15 03:17:34;;;;;;;17.33;12.30;;;;;;;17.07;70.55;101128.19;5067151;28;20684;-76
2021/06/15 03:20:06;;;;;;;16.90;12.13;;;;;;;17.05;70.82;101132.84;5062628;28;20216;-77
2021/06/15 03:22:41;;;;;;;14.40;12.93;;;;;;;17.02;70.72;101131.25;5057684;28;20729;-77
2021/06/15 03:25:10;;;;;;;15.87;11.73;;;;;;;17.01;70.99;101144.88;5061966;28;20226;-77
2021/06/15 03:27:40;;;;;;;13.77;12.27;;;;;;;16.99;71.31;101138.75;5066898;28;20232;-76
2021/06/15 03:30:11;;;;;;;15.07;12.47;;;;;;;16.97;71.47;101138.88;5085651;22;20223;-64
2021/06/15 03:32:44;;;;;;;15.53;12.60;;;;;;;16.95;71.36;101135.44;5105890;28;20201;-63
2021/06/15 03:35:13;;;;;;;15.47;12.80;;;;;;;16.94;71.60;101143.66;5106630;28;20408;-64
2021/06/15 03:37:42;;;;;;;18.10;13.30;;;;;;;16.93;71.81;101150.00;5089823;28;20666;-66
2021/06/15 03:40:11;;;;;;;14.70;12.70;;;;;;;16.91;71.91;101151.97;5094802;28;20208;-65
2021/06/15 03:42:39;;;;;;;16.20;13.50;;;;;;;16.90;72.09;101155.63;5088076;28;20205;-65
2021/06/15 03:45:09;;;;;;;17.33;13.20;;;;;;;16.88;72.22;101154.91;5121818;22;20311;-65
2021/06/15 03:47:37;;;;;;;18.33;13.50;;;;;;;16.86;72.20;101156.84;5108132;28;20334;-65
2021/06/15 03:50:06;;;;;;;20.83;14.07;;;;;;;16.84;72.26;101153.47;5107833;28;20201;-66
2021/06/15 03:52:37;;;;;;;19.80;14.03;;;;;;;16.83;72.55;101151.75;5107255;28;20210;-65
2021/06/15 03:55:07;;;;;;;15.20;13.57;;;;;;;16.82;72.52;101155.41;5108117;28;20220;-65
2021/06/15 03:57:40;;;;;;;19.83;14.00;;;;;;;16.80;72.75;101166.31;5096744;28;20584;-65
2021/06/15 04:00:08;;;;;;;16.13;14.13;;;;;;;16.79;72.83;101166.44;5108302;28;20672;-65
2021/06/15 04:02:39;;;;;;;19.87;15.13;;;;;;;16.79;72.89;101161.03;5094766;28;20200;-65
2021/06/15 04:05:07;;;;;;;16.97;14.30;;;;;;;16.78;73.02;101170.94;5091770;28;20236;-65
2021/06/15 04:07:36;;;;;;;19.33;15.20;;;;;;;16.78;73.24;101164.72;5099252;28;20205;-65
2021/06/15 04:10:04;;;;;;;17.23;14.97;;;;;;;16.78;73.58;101170.09;5098523;28;20201;-65
2021/06/15 04:12:31;;;;;;;22.07;15.57;;;;;;;16.77;73.47;101176.44;5101864;28;20742;-65
2021/06/15 04:15:00;;;;;;;19.47;14.80;;;;;;;16.76;73.78;101178.28;5103120;28;20220;-64
2021/06/15 04:17:29;;;;;;;23.80;16.57;;;;;;;16.77;73.93;101176.44;5096025;28;20289;-65
2021/06/15 04:19:57;;;;;;;22.00;16.43;;;;;;;16.77;74.04;101180.00;5093992;28;20205;-65
2021/06/15 04:22:29;;;;;;;21.37;15.90;;;;;;;16.77;73.95;101184.53;5091531;28;20209;-64
2021/06/15 04:24:59;;;;;;;20.13;15.50;;;;;;;16.76;74.31;101190.88;5106228;28;20252;-65
2021/06/15 04:27:27;;;;;;;23.83;16.33;;;;;;;16.78;74.39;101189.78;5102875;28;20197;-65
2021/06/15 04:29:55;;;;;;;20.53;16.43;;;;;;;16.79;74.51;101190.63;5098566;28;20201;-65
2021/06/15 04:32:24;;;;;;;28.23;16.90;;;;;;;16.80;74.62;101189.66;5096811;28;20300;-65
2021/06/15 04:34:55;;;;;;;26.93;17.73;;;;;;;16.79;74.94;101196.88;5091045;28;20920;-65
2021/06/15 04:37:24;;;;;;;22.80;16.47;;;;;;;16.79;74.94;101198.72;5093817;28;20200;-65
2021/06/15 04:39:54;;;;;;;19.07;15.77;;;;;;;16.81;75.08;101199.44;5094183;28;20208;-65
2021/06/15 04:42:35;;;;;;;26.70;17.10;;;;;;;16.83;74.84;101206.41;5101558;28;20690;-65
2021/06/15 04:45:02;;;;;;;25.13;17.23;;;;;;;16.84;75.05;101199.19;5104639;28;20251;-64
2021/06/15 04:47:32;;;;;;;21.03;18.13;;;;;;;16.85;75.41;101198.19;5093742;28;20196;-64
2021/06/15 04:50:03;;;;;;;26.27;18.80;;;;;;;16.88;75.48;101208.72;5104024;28;20201;-65
2021/06/15 04:52:31;;;;;;;22.33;17.77;;;;;;;16.91;75.76;101203.09;5099423;28;20191;-64
2021/06/15 04:55:01;;;;;;;26.20;19.20;;;;;;;16.95;75.70;101218.88;5100604;28;20216;-65
2021/06/15 04:57:34;;;;;;;29.23;18.43;;;;;;;16.96;75.61;101207.13;5104309;28;20594;-65
2021/06/15 05:00:02;;;;;;;27.73;18.83;;;;;;;17.02;75.80;101213.00;5101834;28;20698;-65
2021/06/15 05:02:29;;;;;;;26.60;18.57;;;;;;;17.04;75.91;101219.06;5103518;28;20204;-64
2021/06/15 05:04:56;;;;;;;27.27;19.57;;;;;;;17.09;75.86;101208.81;5099518;28;20221;-65
2021/06/15 05:07:24;;;;;;;31.57;20.37;;;;;;;17.13;75.89;101213.81;5101352;28;20216;-65
2021/06/15 05:09:53;;;;;;;28.70;19.37;;;;;;;17.16;75.97;101213.56;5098149;28;20415;-65
2021/06/15 05:12:21;;;;;;;26.23;20.03;;;;;;;17.19;75.88;101217.84;5100832;28;20201;-65
2021/06/15 05:14:50;;;;;;;31.97;21.37;;;;;;;17.21;75.78;101218.56;5103297;28;20243;-65
2021/06/15 05:17:20;;;;;;;27.23;19.33;;;;;;;17.24;76.01;101216.47;5101982;28;20200;-65
2021/06/15 05:19:47;;;;;;;28.03;21.03;;;;;;;17.29;76.08;101213.41;5102889;28;20212;-65
2021/06/15 05:22:24;;;;;;;33.00;22.33;;;;;;;17.35;76.02;101226.38;5099428;28;20208;-65
2021/06/15 05:24:52;;;;;;;27.47;20.17;;;;;;;17.40;75.75;101226.81;5102924;28;20223;-65
2021/06/15 05:27:21;;;;;;;30.97;20.33;;;;;;;17.47;75.89;101219.09;5092973;28;20413;-65
2021/06/15 05:29:49;;;;;;;28.00;19.60;;;;;;;17.57;75.80;101228.13;5094579;28;20294;-65
2021/06/15 05:32:16;;;;;;;30.17;20.90;;;;;;;17.66;75.68;101222.00;5092586;28;20229;-64
2021/06/15 05:34:42;;;;;;;26.37;20.63;;;;;;;17.74;75.38;101218.66;5094186;28;20226;-69
2021/06/15 05:37:10;;;;;;;26.17;19.43;;;;;;;17.79;75.30;101236.16;5095906;28;20198;-69
2021/06/15 05:39:37;;;;;;;25.60;20.23;;;;;;;17.87;75.14;101236.38;5095027;28;20206;-68
2021/06/15 05:42:05;;;;;;;23.97;19.67;;;;;;;17.95;74.81;101236.56;5096079;28;20616;-69
2021/06/15 05:44:32;;;;;;;29.53;19.77;;;;;;;18.03;74.72;101226.00;5092021;28;20237;-70
2021/06/15 05:47:01;;;;;;;27.97;20.97;;;;;;;18.12;74.39;101229.72;5094793;28;20231;-71
2021/06/15 05:49:27;;;;;;;29.67;20.73;;;;;;;18.24;74.71;101233.22;5092320;28;20200;-69
2021/06/15 05:51:59;;;;;;;27.23;19.57;;;;;;;18.35;73.99;101222.34;5090929;28;20228;-69
2021/06/15 05:54:25;;;;;;;24.77;18.93;;;;;;;18.48;73.77;101217.59;5094782;28;20599;-69
2021/06/15 05:56:52;;;;;;;23.23;18.73;;;;;;;18.62;73.49;101224.53;5093136;28;20659;-68
2021/06/15 05:59:40;;;;;;;24.50;18.87;;;;;;;18.72;72.82;101228.97;5094256;28;20205;-69
2021/06/15 06:02:08;;;;;;;22.50;18.53;;;;;;;18.78;72.03;101227.59;5087561;28;20207;-69
2021/06/15 06:04:46;;;;;;;27.63;19.13;;;;;;;18.82;71.98;101237.09;5092176;28;20229;-64
2021/06/15 06:09:57;;;;;;;23.27;19.03;;;;;;;18.95;71.64;101251.22;5092492;28;20232;-64
2021/06/15 06:12:23;;;;;;;25.93;18.50;;;;;;;19.01;71.25;101249.81;5093192;28;20296;-64
2021/06/15 06:14:50;;;;;;;24.57;18.50;;;;;;;19.01;70.94;101245.25;5093706;28;20225;-64
2021/06/15 06:17:18;;;;;;;27.13;18.00;;;;;;;19.03;70.74;101245.97;5093687;28;20201;-65
2021/06/15 06:19:45;;;;;;;23.23;18.63;;;;;;;19.05;70.63;101245.84;5095654;28;20205;-65
2021/06/15 06:22:13;;;;;;;25.70;18.47;;;;;;;19.08;70.36;101246.44;5092247;28;20217;-64
2021/06/15 06:24:40;;;;;;;24.87;18.50;;;;;;;19.11;70.12;101258.81;5095986;28;20228;-64
2021/06/15 06:27:07;;;;;;;25.83;19.00;;;;;;;19.14;70.34;101257.69;5099619;28;20227;-65
2021/06/15 06:29:33;;;;;;;22.67;18.00;;;;;;;19.17;70.18;101258.25;5099313;28;20200;-64
2021/06/15 06:32:01;;;;;;;26.47;18.63;;;;;;;19.23;69.81;101263.09;5095170;28;20223;-64
2021/06/15 06:34:29;;;;;;;23.07;18.40;;;;;;;19.28;70.08;101260.84;5091430;28;20226;-64
2021/06/15 06:36:59;;;;;;;25.53;18.57;;;;;;;19.38;69.80;101256.31;5095579;28;20217;-64
2021/06/15 06:39:26;;;;;;;21.00;18.20;;;;;;;19.47;69.42;101256.47;5094298;28;20207;-64
2021/06/15 06:41:52;;;;;;;24.00;17.73;;;;;;;19.52;69.52;101260.50;5091083;28;20655;-68
2021/06/15 06:44:19;;;;;;;23.97;18.67;;;;;;;19.57;69.00;101262.75;5093861;28;20232;-70
2021/06/15 06:46:45;;;;;;;29.27;19.27;;;;;;;19.60;68.91;101257.94;5093687;28;20222;-70
2021/06/15 06:49:12;;;;;;;25.03;18.60;;;;;;;19.63;68.83;101264.91;5095243;28;20574;-70
2021/06/15 06:51:40;;;;;;;24.80;18.63;;;;;;;19.68;68.83;101262.66;5094500;28;20205;-70
2021/06/15 06:54:07;;;;;;;23.67;18.33;;;;;;;19.73;68.68;101257.66;5093277;28;20230;-70
2021/06/15 06:56:33;;;;;;;24.27;18.03;;;;;;;19.79;68.15;101264.34;5091285;28;20198;-70
2021/06/15 06:59:00;;;;;;;25.13;18.00;;;;;;;19.79;68.08;101262.50;5096556;28;20198;-70
2021/06/15 07:01:27;;;;;;;24.00;17.90;;;;;;;19.79;67.82;101261.66;5092319;28;20197;-70
2021/06/15 07:03:54;;;;;;;23.80;18.30;;;;;;;19.77;67.65;101259.09;5096556;28;20225;-70
2021/06/15 07:06:21;;;;;;;25.27;18.00;;;;;;;19.73;67.70;101260.38;5094986;28;20226;-70
2021/06/15 07:08:48;;;;;;;23.33;17.23;;;;;;;19.70;67.78;101258.81;5101375;28;20229;-70
2021/06/15 07:11:15;;;;;;;21.00;15.90;;;;;;;19.70;67.66;101257.97;5098244;28;20198;-70
2021/06/15 07:13:42;;;;;;;19.53;17.13;;;;;;;19.68;67.88;101258.09;5104570;28;20624;-70
2021/06/15 07:16:08;;;;;;;24.17;16.70;;;;;;;19.68;67.79;101258.09;5097914;28;20581;-70
2021/06/15 07:18:38;;;;;;;19.40;17.10;;;;;;;19.69;67.64;101261.66;5095756;28;20206;-70
2021/06/15 07:21:05;;;;;;;19.37;14.87;;;;;;;19.67;67.81;101258.25;5098774;28;20205;-70
2021/06/15 07:23:32;;;;;;;17.87;15.33;;;;;;;19.67;67.72;101259.09;5109405;28;20214;-70
2021/06/15 07:26:00;;;;;;;24.60;16.50;;;;;;;19.67;67.68;101263.66;5111344;28;20210;-70
2021/06/15 07:28:27;;;;;;;20.77;15.47;;;;;;;19.63;67.73;101268.47;5096819;28;20201;-70
2021/06/15 07:30:53;;;;;;;18.93;15.73;;;;;;;19.63;67.58;101262.22;5096396;28;20678;-70
2021/06/15 07:33:20;;;;;;;20.13;15.90;;;;;;;19.58;67.28;101261.78;5099712;28;20206;-70
2021/06/15 07:35:47;;;;;;;17.40;15.57;;;;;;;19.57;67.52;101262.75;5095654;28;20205;-70
2021/06/15 07:38:13;;;;;;;18.97;15.13;;;;;;;19.59;67.70;101268.88;5104795;28;20204;-70
2021/06/15 07:40:40;;;;;;;17.00;15.20;;;;;;;19.61;67.43;101267.75;5098406;28;20205;-70
2021/06/15 07:43:08;;;;;;;16.57;14.23;;;;;;;19.65;67.50;101265.63;5104837;28;20215;-70
2021/06/15 07:45:38;;;;;;;18.73;16.13;;;;;;;19.67;67.18;101267.22;5093635;28;20252;-70
2021/06/15 07:48:05;;;;;;;18.77;16.67;;;;;;;19.66;66.76;101270.91;5090768;28;20218;-70
2021/06/15 07:50:32;;;;;;;18.23;16.33;;;;;;;19.66;66.56;101278.16;5098712;28;20212;-70
2021/06/15 07:52:59;;;;;;;22.63;16.47;;;;;;;19.67;66.48;101269.91;5099705;28;20198;-70
2021/06/15 07:55:25;;;;;;;18.23;15.53;;;;;;;19.68;65.90;101282.44;5103200;28;20218;-70
2021/06/15 07:57:52;;;;;;;16.57;14.57;;;;;;;19.71;66.07;101283.97;5095017;28;20213;-70
2021/06/15 08:00:21;;;;;;;17.97;13.60;;;;;;;19.71;65.91;101283.97;5104628;28;20197;-70
2021/06/15 08:02:47;;;;;;;17.90;14.13;;;;;;;19.74;65.82;101278.28;5100348;28;20200;-70
2021/06/15 08:05:15;;;;;;;14.83;13.23;;;;;;;19.77;65.47;101281.56;5109510;28;20232;-70
2021/06/15 08:07:41;;;;;;;16.03;13.27;;;;;;;19.81;65.49;101292.97;5097505;28;20227;-70
2021/06/15 08:10:09;;;;;;;17.40;13.83;;;;;;;19.83;65.31;101296.38;5104468;28;20207;-70
2021/06/15 08:12:36;;;;;;;16.37;14.60;;;;;;;19.86;65.09;101296.09;5108558;28;20211;-70
2021/06/15 08:15:03;;;;;;;17.13;14.93;;;;;;;19.92;65.30;101302.78;5103751;28;20234;-70
2021/06/15 08:17:31;;;;;;;19.30;14.50;;;;;;;19.96;64.99;101299.66;5104429;28;20209;-70
2021/06/15 08:19:57;;;;;;;17.97;15.57;;;;;;;20.01;64.72;101301.94;5109325;28;20207;-70
2021/06/15 08:22:24;;;;;;;16.80;13.17;;;;;;;20.04;64.52;101302.50;5109405;28;20213;-70
2021/06/15 08:24:50;;;;;;;18.50;12.93;;;;;;;20.05;63.95;101300.66;5107641;28;20221;-70
2021/06/15 08:27:17;;;;;;;17.50;13.03;;;;;;;20.03;63.85;101289.97;5104231;28;20733;-71
2021/06/15 08:29:43;;;;;;;14.87;12.83;;;;;;;20.03;63.92;101305.34;5104837;28;20220;-70
2021/06/15 08:32:10;;;;;;;13.40;11.33;;;;;;;20.05;63.69;101306.91;5113173;28;20589;-70
2021/06/15 08:34:38;;;;;;;15.43;11.90;;;;;;;20.08;63.61;101303.06;5112770;28;20218;-70
2021/06/15 08:37:04;;;;;;;13.33;11.20;;;;;;;20.10;63.48;101311.88;5112070;28;20289;-70
2021/06/15 08:39:31;;;;;;;15.50;11.07;;;;;;;20.14;63.25;101313.31;5100673;28;20207;-70
2021/06/15 08:41:58;;;;;;;15.43;11.03;;;;;;;20.18;63.28;101311.19;5107542;28;20210;-70
2021/06/15 08:44:24;;;;;;;14.20;10.27;;;;;;;20.23;63.20;101315.19;5108088;27;20236;-71
2021/06/15 08:46:51;;;;;;;11.17;9.90;;;;;;;20.27;62.75;101316.56;5111481;28;20215;-71
2021/06/15 08:49:18;;;;;;;12.53;10.70;;;;;;;20.31;62.52;101314.44;5113054;28;20214;-70
2021/06/15 08:51:46;;;;;;;11.73;9.53;;;;;;;20.35;62.14;101313.16;5100234;28;20219;-70
2021/06/15 08:54:15;;;;;;;12.73;9.70;;;;;;;20.35;62.06;101316.72;5114087;28;20429;-70
2021/06/15 08:56:43;;;;;;;10.87;9.80;;;;;;;20.38;62.35;101307.50;5113295;28;20208;-64
2021/06/15 08:59:19;;;;;;;12.50;9.87;;;;;;;20.42;62.19;101311.63;5110357;28;20202;-64
2021/06/15 09:01:46;;;;;;;10.80;9.57;;;;;;;20.47;61.92;101306.59;5097251;28;20209;-64
2021/06/15 09:04:13;;;;;;;11.07;9.17;;;;;;;20.49;61.90;101315.44;5100711;28;20717;-65
2021/06/15 09:06:40;;;;;;;10.30;9.03;;;;;;;20.55;61.70;101319.44;5099496;28;20222;-65
2021/06/15 09:09:08;;;;;;;11.77;9.47;;;;;;;20.58;61.32;101317.28;5111226;28;20209;-64
2021/06/15 09:11:53;;;;;;;13.20;10.20;;;;;;;20.64;61.42;101322.09;5102696;28;20696;-65
2021/06/15 09:14:20;;;;;;;11.63;9.40;;;;;;;20.68;61.19;101328.09;5093992;28;20227;-65
2021/06/15 09:16:48;;;;;;;10.93;9.00;;;;;;;20.71;61.01;101320.53;5097091;28;20236;-65
2021/06/15 09:19:17;;;;;;;13.43;9.67;;;;;;;20.77;60.66;101316.41;5096685;28;20193;-65
2021/06/15 09:21:45;;;;;;;10.20;8.70;;;;;;;20.85;60.58;101313.78;5096372;28;20208;-65
2021/06/15 09:24:15;;;;;;;9.87;8.63;;;;;;;20.94;60.03;101312.06;5093462;28;20226;-65
2021/06/15 09:27:05;;;;;;;12.63;8.83;;;;;;;20.99;59.55;101312.44;5092548;28;20693;-65
2021/06/15 09:29:43;;;;;;;11.60;9.23;;;;;;;21.06;59.69;101317.13;5095393;28;20241;-65
2021/06/15 09:32:13;;;;;;;14.07;10.40;;;;;;;21.17;59.03;101305.25;5092233;28;20583;-69
2021/06/15 09:34:52;;;;;;;11.53;10.43;;;;;;;21.21;58.74;101312.09;5092453;28;20250;-69
2021/06/15 09:37:27;;;;;;;13.17;9.60;;;;;;;21.23;58.33;101309.25;5094922;28;20211;-69
2021/06/15 09:39:55;;;;;;;9.38;8.48;;;;;;;21.23;58.09;101318.22;5094464;28;20228;-69
2021/06/15 09:42:22;;;;;;;9.82;8.82;;;;;;;21.25;58.23;101320.78;5105069;28;20206;-65
2021/06/15 09:44:48;;;;;;;7.93;7.13;;;;;;;21.26;58.14;101317.09;5089224;28;20226;-62
2021/06/15 09:47:15;;;;;;;7.90;6.70;;;;;;;21.29;58.28;101320.34;5108496;27;20699;-63
2021/06/15 09:49:44;;;;;;;9.80;6.53;;;;;;;21.33;58.04;101313.59;5101327;27;20202;-62
2021/06/15 09:52:13;;;;;;;9.33;6.70;;;;;;;21.35;57.84;101317.03;5100592;28;20570;-62
2021/06/15 09:54:40;;;;;;;6.63;5.50;;;;;;;21.36;57.59;101312.47;5103467;28;20227;-63
2021/06/15 09:57:09;;;;;;;7.13;5.10;;;;;;;21.41;57.33;101308.31;5087849;28;20613;-63
2021/06/15 09:59:35;;;;;;;9.00;5.03;;;;;;;21.47;57.01;101315.84;5093860;28;20202;-63
2021/06/15 10:02:02;;;;;;;7.75;5.00;;;;;;;21.49;56.38;101304.84;5096777;27;20202;-63
2021/06/15 10:04:29;;;;;;;4.43;4.03;;;;;;;21.51;56.15;101307.38;5097312;28;20718;-63
2021/06/15 10:06:57;;;;;;;4.17;3.33;;;;;;;21.52;55.94;101304.50;5099256;28;20233;-63
2021/06/15 10:09:25;;;;;;;6.45;3.65;;;;;;;21.60;56.16;101312.75;5095529;28;20276;-63
2021/06/15 10:11:52;;;;;;;5.47;3.10;;;;;;;21.67;55.49;101315.72;5101077;28;20280;-63
2021/06/15 10:14:21;;;;;;;6.93;3.65;;;;;;;21.73;55.39;101306.94;5097340;28;20586;-63
2021/06/15 10:16:47;;;;;;;5.68;2.90;;;;;;;21.84;55.33;101306.75;5091711;28;20218;-63
2021/06/15 10:19:14;;;;;;;7.05;2.90;;;;;;;21.93;54.90;101302.25;5090933;28;20206;-63
2021/06/15 10:21:41;;;;;;;8.07;3.30;;;;;;;22.01;54.79;101305.06;5093101;28;20214;-63
2021/06/15 10:24:08;;;;;;;7.80;3.60;;;;;;;22.07;54.37;101296.28;5101798;28;20239;-63
2021/06/15 10:26:36;;;;;;;7.82;3.85;;;;;;;22.14;54.33;101292.81;5101865;27;20208;-63
2021/06/15 10:29:10;;;;;;;4.85;3.25;;;;;;;22.20;53.96;101296.78;5094436;28;20219;-63
2021/06/15 10:31:40;;;;;;;7.95;3.80;;;;;;;22.21;53.66;101297.63;5092409;28;20224;-63
2021/06/15 10:34:06;;;;;;;6.13;3.17;;;;;;;22.21;53.69;101286.78;5099917;28;20239;-63
2021/06/15 10:36:41;;;;;;;12.13;3.35;;;;;;;22.27;53.80;101294.25;5106261;28;20582;-63
2021/06/15 10:39:10;;;;;;;6.30;3.45;;;;;;;22.36;53.46;101294.19;5097561;28;20260;-63
2021/06/15 10:41:37;;;;;;;4.13;3.03;;;;;;;22.42;53.45;101288.09;5092839;28;20287;-63
2021/06/15 10:44:04;;;;;;;4.70;2.75;;;;;;;22.53;52.96;101289.72;5091667;28;20246;-63
2021/06/15 10:46:38;;;;;;;4.45;2.15;;;;;;;22.63;52.35;101287.75;5091628;28;20573;-64
2021/06/15 10:49:08;;;;;;;3.78;2.10;;;;;;;22.72;51.96;101286.81;5097822;28;20210;-64
2021/06/15 10:51:42;;;;;;;4.47;2.28;;;;;;;22.80;51.76;101292.31;5097988;28;20228;-68
2021/06/15 10:54:29;;;;;;;6.75;2.35;;;;;;;22.91;51.55;101290.34;5099132;28;20251;-69
2021/06/15 10:57:21;;;;;;;4.35;1.90;;;;;;;23.00;50.25;101284.78;5104114;28;20207;-69
2021/06/15 11:00:12;;;;;;;2.35;1.70;;;;;;;23.05;49.40;101284.28;5098886;28;20239;-69
2021/06/15 11:02:41;;;;;;;4.82;1.77;;;;;;;23.07;48.76;101283.13;5106499;28;20201;-69
2021/06/15 11:05:40;;;;;;;2.95;2.00;;;;;;;23.16;48.51;101287.56;5097090;28;20215;-69
2021/06/15 11:08:18;;;;;;;3.55;1.92;;;;;;;23.21;47.96;101276.22;5111623;28;20302;-69
2021/06/15 11:10:47;;;;;;;3.30;1.88;;;;;;;23.26;48.10;101270.28;5107503;28;20202;-69
2021/06/15 11:13:13;;;;;;;3.42;1.80;;;;;;;23.34;48.20;101268.44;5098659;28;20592;-69
2021/06/15 11:15:59;;;;;;;4.60;2.00;;;;;;;23.51;48.07;101272.94;5102669;28;20730;-69
2021/06/15 11:18:27;;;;;;;8.75;2.10;;;;;;;23.63;47.87;101280.78;5106638;28;20192;-68
2021/06/15 11:20:54;;;;;;;6.60;1.92;;;;;;;23.69;47.30;101277.38;5106985;28;20836;-68
2021/06/15 11:23:26;;;;;;;3.95;1.67;;;;;;;23.73;47.35;101268.75;5107749;28;20298;-71
2021/06/15 11:25:56;;;;;;;4.00;1.55;;;;;;;23.82;46.97;101270.47;5097617;28;20572;-69